sensor_id;sensor_type;location;lat;lon;timestamp;pressure;altitude;pressure_sealevel;temperature;humidity
45894;BME280;31603;51.148;16.932;2023-03-17T11:19:53;100721.88;;;13.25;100.00
45894;BME280;31603;51.148;16.932;2023-03-17T11:22:29;100543.22;;;12.41;100.00
45894;BME280;31603;51.148;16.932;2023-03-17T11:25:04;100420.84;;;13.50;100.00
45894;BME280;31603;51.148;16.932;2023-03-17T11:27:39;100352.88;;;13.49;100.00
45894;BME280;31603;51.148;16.932;2023-03-17T11:30:16;100365.03;;;13.66;100.00
45894;BME280;31603;51.148;16.932;2023-03-17T11:32:53;100338.41;;;13.90;100.00
45894;BME280;31603;51.148;16.932;2023-03-17T11:35:32;100233.75;;;13.57;100.00
45894;BME280;31603;51.148;16.932;2023-03-17T11:38:18;100157.56;;;14.93;100.00
45894;BME280;31603;51.148;16.932;2023-03-17T11:43:55;100344.56;;;13.74;100.00
45894;BME280;31603;51.148;16.932;2023-03-17T12:50:39;63776.66;;;-146.80;100.00
45894;BME280;31603;51.148;16.932;2023-03-17T12:53:40;100291.88;;;15.97;27.66
45894;BME280;31603;51.148;16.932;2023-03-17T12:56:12;100292.84;;;17.17;26.95
45894;BME280;31603;51.148;16.932;2023-03-17T12:58:43;100285.59;;;17.16;27.24
45894;BME280;31603;51.148;16.932;2023-03-17T13:01:19;100284.78;;;17.15;26.32
45894;BME280;31603;51.148;16.932;2023-03-17T13:04:00;100290.91;;;17.51;26.79
45894;BME280;31603;51.148;16.932;2023-03-17T13:06:29;100277.91;;;17.73;27.05
45894;BME280;31603;51.148;16.932;2023-03-17T13:12:05;100294.44;;;17.63;26.49
45894;BME280;31603;51.148;16.932;2023-03-17T13:14:40;100297.88;;;17.70;26.02
45894;BME280;31603;51.148;16.932;2023-03-17T13:17:29;100291.94;;;18.22;25.54
45894;BME280;31603;51.148;16.932;2023-03-17T13:20:10;100286.69;;;18.04;25.66
45894;BME280;31603;51.148;16.932;2023-03-17T13:22:40;100280.25;;;17.82;26.31
45894;BME280;31603;51.148;16.932;2023-03-17T13:25:27;100282.06;;;17.37;26.61
45894;BME280;31603;51.148;16.932;2023-03-17T13:28:16;100274.41;;;16.94;26.92
45894;BME280;31603;51.148;16.932;2023-03-17T13:30:57;100271.03;;;17.76;26.88
45894;BME280;31603;51.148;16.932;2023-03-17T13:33:29;100268.63;;;18.28;26.34
45894;BME280;31603;51.148;16.932;2023-03-17T13:36:20;100270.44;;;18.40;25.95
45894;BME280;31603;51.148;16.932;2023-03-17T13:39:10;100267.47;;;18.24;26.28
45894;BME280;31603;51.148;16.932;2023-03-17T13:41:55;100271.34;;;17.79;26.13
45894;BME280;31603;51.148;16.932;2023-03-17T13:44:33;100254.47;;;17.69;26.67
45894;BME280;31603;51.148;16.932;2023-03-17T13:47:24;100273.56;;;16.93;26.74
45894;BME280;31603;51.148;16.932;2023-03-17T13:49:53;100287.00;;;18.29;26.65
45894;BME280;31603;51.148;16.932;2023-03-17T13:52:38;100272.00;;;17.87;27.06
45894;BME280;31603;51.148;16.932;2023-03-17T13:55:31;100272.06;;;17.75;26.44
45894;BME280;31603;51.148;16.932;2023-03-17T13:58:34;100270.44;;;17.96;26.59
45894;BME280;31603;51.148;16.932;2023-03-17T14:01:22;100260.50;;;16.94;26.46
45894;BME280;31603;51.148;16.932;2023-03-17T14:03:50;100278.16;;;16.59;27.84
45894;BME280;31603;51.148;16.932;2023-03-17T14:06:26;100276.00;;;17.06;27.66
45894;BME280;31603;51.148;16.932;2023-03-17T14:08:59;100280.44;;;16.91;27.26
45894;BME280;31603;51.148;16.932;2023-03-17T14:11:32;100266.47;;;17.02;27.11
45894;BME280;31603;51.148;16.932;2023-03-17T14:14:20;100266.81;;;17.95;25.89
45894;BME280;31603;51.148;16.932;2023-03-17T14:16:56;100263.53;;;18.42;26.26
45894;BME280;31603;51.148;16.932;2023-03-17T14:19:29;100281.09;;;17.82;26.58
45894;BME280;31603;51.148;16.932;2023-03-17T14:22:01;100263.97;;;18.56;26.74
45894;BME280;31603;51.148;16.932;2023-03-17T14:24:29;100267.63;;;18.62;25.63
45894;BME280;31603;51.148;16.932;2023-03-17T14:26:56;100266.13;;;18.27;25.49
45894;BME280;31603;51.148;16.932;2023-03-17T14:29:28;100264.78;;;18.79;26.02
45894;BME280;31603;51.148;16.932;2023-03-17T14:32:02;100265.84;;;17.85;25.75
45894;BME280;31603;51.148;16.932;2023-03-17T14:34:29;100256.16;;;18.31;25.27
45894;BME280;31603;51.148;16.932;2023-03-17T14:37:00;100251.22;;;18.65;25.51
45894;BME280;31603;51.148;16.932;2023-03-17T14:39:27;100256.72;;;18.11;26.01
45894;BME280;31603;51.148;16.932;2023-03-17T14:41:58;100245.38;;;17.18;26.59
45894;BME280;31603;51.148;16.932;2023-03-17T14:44:27;100235.75;;;17.09;26.81
45894;BME280;31603;51.148;16.932;2023-03-17T14:47:04;100233.97;;;17.03;26.99
45894;BME280;31603;51.148;16.932;2023-03-17T14:49:32;100234.66;;;17.10;26.98
45894;BME280;31603;51.148;16.932;2023-03-17T14:52:00;100235.75;;;17.09;26.37
45894;BME280;31603;51.148;16.932;2023-03-17T14:54:29;100232.75;;;16.65;27.73
45894;BME280;31603;51.148;16.932;2023-03-17T14:56:59;100231.47;;;16.27;27.65
45894;BME280;31603;51.148;16.932;2023-03-17T14:59:32;100225.13;;;16.44;27.98
45894;BME280;31603;51.148;16.932;2023-03-17T15:02:00;100221.72;;;15.84;28.45
45894;BME280;31603;51.148;16.932;2023-03-17T15:04:29;100220.34;;;15.99;27.82
45894;BME280;31603;51.148;16.932;2023-03-17T15:06:58;100214.28;;;15.73;27.50
45894;BME280;31603;51.148;16.932;2023-03-17T15:09:27;100207.53;;;14.99;28.07
45894;BME280;31603;51.148;16.932;2023-03-17T15:12:00;100203.31;;;15.20;28.27
45894;BME280;31603;51.148;16.932;2023-03-17T15:14:35;100209.47;;;15.45;28.21
45894;BME280;31603;51.148;16.932;2023-03-17T15:17:04;100199.09;;;15.17;28.15
45894;BME280;31603;51.148;16.932;2023-03-17T15:19:37;100213.72;;;14.59;28.72
45894;BME280;31603;51.148;16.932;2023-03-17T15:22:21;100208.59;;;14.14;29.27
45894;BME280;31603;51.148;16.932;2023-03-17T15:24:58;100203.34;;;13.76;29.44
45894;BME280;31603;51.148;16.932;2023-03-17T15:27:26;100202.00;;;13.48;30.08
45894;BME280;31603;51.148;16.932;2023-03-17T15:29:54;100203.09;;;13.22;30.10
45894;BME280;31603;51.148;16.932;2023-03-17T15:32:22;100223.44;;;13.02;30.67
45894;BME280;31603;51.148;16.932;2023-03-17T15:34:51;100214.94;;;13.04;30.97
45894;BME280;31603;51.148;16.932;2023-03-17T15:37:19;100213.22;;;13.28;30.69
45894;BME280;31603;51.148;16.932;2023-03-17T15:39:46;100217.56;;;12.92;30.76
45894;BME280;31603;51.148;16.932;2023-03-17T15:42:14;100210.03;;;12.81;30.79
45894;BME280;31603;51.148;16.932;2023-03-17T15:44:41;100201.97;;;12.55;31.66
45894;BME280;31603;51.148;16.932;2023-03-17T15:47:11;100212.25;;;12.41;31.44
45894;BME280;31603;51.148;16.932;2023-03-17T15:49:38;100202.13;;;12.35;32.23
45894;BME280;31603;51.148;16.932;2023-03-17T15:52:12;100209.34;;;12.29;32.57
45894;BME280;31603;51.148;16.932;2023-03-17T15:54:39;100210.59;;;12.33;32.53
45894;BME280;31603;51.148;16.932;2023-03-17T15:57:07;100215.94;;;12.28;32.56
45894;BME280;31603;51.148;16.932;2023-03-17T15:59:33;100214.66;;;11.92;33.53
45894;BME280;31603;51.148;16.932;2023-03-17T16:02:00;100215.56;;;11.73;33.67
45894;BME280;31603;51.148;16.932;2023-03-17T16:04:27;100219.78;;;11.69;34.30
45894;BME280;31603;51.148;16.932;2023-03-17T16:06:54;100205.19;;;11.62;34.41
45894;BME280;31603;51.148;16.932;2023-03-17T16:09:20;100213.91;;;11.59;35.00
45894;BME280;31603;51.148;16.932;2023-03-17T16:11:47;100197.00;;;11.35;34.98
45894;BME280;31603;51.148;16.932;2023-03-17T16:14:16;100209.34;;;11.19;35.03
45894;BME280;31603;51.148;16.932;2023-03-17T16:16:42;100208.50;;;11.19;35.33
45894;BME280;31603;51.148;16.932;2023-03-17T16:19:16;100207.84;;;11.10;35.06
45894;BME280;31603;51.148;16.932;2023-03-17T16:21:46;100212.09;;;10.99;35.31
45894;BME280;31603;51.148;16.932;2023-03-17T16:24:16;100209.34;;;10.99;35.97
45894;BME280;31603;51.148;16.932;2023-03-17T16:26:43;100205.56;;;10.87;36.09
45894;BME280;31603;51.148;16.932;2023-03-17T16:29:11;100202.59;;;10.89;36.41
45894;BME280;31603;51.148;16.932;2023-03-17T16:31:38;100206.19;;;11.02;36.76
45894;BME280;31603;51.148;16.932;2023-03-17T16:34:13;100225.03;;;10.66;37.12
45894;BME280;31603;51.148;16.932;2023-03-17T16:36:40;100212.75;;;10.62;37.26
45894;BME280;31603;51.148;16.932;2023-03-17T16:39:14;100209.78;;;10.50;37.00
45894;BME280;31603;51.148;16.932;2023-03-17T16:41:43;100216.13;;;10.50;37.22
45894;BME280;31603;51.148;16.932;2023-03-17T16:44:10;100214.41;;;10.36;37.47
45894;BME280;31603;51.148;16.932;2023-03-17T16:46:37;100212.72;;;10.28;38.11
45894;BME280;31603;51.148;16.932;2023-03-17T16:49:04;100202.16;;;10.32;37.96
45894;BME280;31603;51.148;16.932;2023-03-17T16:51:32;100217.38;;;10.28;37.99
45894;BME280;31603;51.148;16.932;2023-03-17T16:53:58;100203.16;;;10.18;38.74
45894;BME280;31603;51.148;16.932;2023-03-17T16:56:26;100195.69;;;10.05;38.41
45894;BME280;31603;51.148;16.932;2023-03-17T16:58:53;100204.13;;;9.97;39.03
45894;BME280;31603;51.148;16.932;2023-03-17T17:01:21;100202.03;;;9.92;38.72
45894;BME280;31603;51.148;16.932;2023-03-17T17:03:50;100208.31;;;9.86;39.25
45894;BME280;31603;51.148;16.932;2023-03-17T17:06:19;100209.53;;;9.70;39.76
45894;BME280;31603;51.148;16.932;2023-03-17T17:08:47;100215.47;;;9.74;40.09
45894;BME280;31603;51.148;16.932;2023-03-17T17:11:17;100217.13;;;9.68;40.20
45894;BME280;31603;51.148;16.932;2023-03-17T17:13:47;100221.31;;;9.57;40.14
45894;BME280;31603;51.148;16.932;2023-03-17T17:16:19;100219.56;;;9.50;40.77
45894;BME280;31603;51.148;16.932;2023-03-17T17:18:47;100225.25;;;9.42;40.90
45894;BME280;31603;51.148;16.932;2023-03-17T17:21:14;100224.41;;;9.41;41.68
45894;BME280;31603;51.148;16.932;2023-03-17T17:23:41;100234.09;;;9.37;41.78
45894;BME280;31603;51.148;16.932;2023-03-17T17:26:07;100231.31;;;9.30;41.64
45894;BME280;31603;51.148;16.932;2023-03-17T17:28:34;100229.59;;;9.29;42.03
45894;BME280;31603;51.148;16.932;2023-03-17T17:31:05;100231.00;;;9.19;42.32
45894;BME280;31603;51.148;16.932;2023-03-17T17:33:33;100231.88;;;9.19;42.40
45894;BME280;31603;51.148;16.932;2023-03-17T17:36:01;100221.00;;;9.04;42.80
45894;BME280;31603;51.148;16.932;2023-03-17T17:38:28;100227.91;;;9.00;42.89
45894;BME280;31603;51.148;16.932;2023-03-17T17:40:56;100232.38;;;9.01;42.87
45894;BME280;31603;51.148;16.932;2023-03-17T17:43:23;100240.25;;;8.83;43.54
45894;BME280;31603;51.148;16.932;2023-03-17T17:45:50;100241.72;;;8.85;44.02
45894;BME280;31603;51.148;16.932;2023-03-17T17:48:20;100235.25;;;8.65;44.09
45894;BME280;31603;51.148;16.932;2023-03-17T17:50:48;100240.84;;;8.57;44.16
45894;BME280;31603;51.148;16.932;2023-03-17T17:53:15;100244.63;;;8.56;44.74
45894;BME280;31603;51.148;16.932;2023-03-17T17:55:43;100239.34;;;8.54;44.47
45894;BME280;31603;51.148;16.932;2023-03-17T17:58:11;100228.91;;;8.43;44.99
45894;BME280;31603;51.148;16.932;2023-03-17T18:00:38;100236.69;;;8.39;44.87
45894;BME280;31603;51.148;16.932;2023-03-17T18:03:04;100218.56;;;8.24;45.05
45894;BME280;31603;51.148;16.932;2023-03-17T18:05:33;100229.13;;;8.27;45.15
45894;BME280;31603;51.148;16.932;2023-03-17T18:07:59;100231.88;;;8.27;45.23
45894;BME280;31603;51.148;16.932;2023-03-17T18:10:26;100227.81;;;8.23;45.53
45894;BME280;31603;51.148;16.932;2023-03-17T18:12:54;100217.78;;;8.30;45.37
45894;BME280;31603;51.148;16.932;2023-03-17T18:15:21;100225.09;;;8.23;45.66
45894;BME280;31603;51.148;16.932;2023-03-17T18:17:52;100224.00;;;8.17;45.54
45894;BME280;31603;51.148;16.932;2023-03-17T18:20:20;100218.06;;;8.13;46.11
45894;BME280;31603;51.148;16.932;2023-03-17T18:22:49;100209.03;;;8.19;46.26
45894;BME280;31603;51.148;16.932;2023-03-17T18:25:17;100216.72;;;8.09;45.72
45894;BME280;31603;51.148;16.932;2023-03-17T18:27:45;100219.91;;;8.13;46.44
45894;BME280;31603;51.148;16.932;2023-03-17T18:30:17;100219.59;;;8.01;46.75
45894;BME280;31603;51.148;16.932;2023-03-17T18:32:45;100208.09;;;7.91;46.86
45894;BME280;31603;51.148;16.932;2023-03-17T18:35:17;100214.41;;;7.91;46.69
45894;BME280;31603;51.148;16.932;2023-03-17T18:37:46;100214.59;;;7.90;47.11
45894;BME280;31603;51.148;16.932;2023-03-17T18:40:15;100190.94;;;7.82;47.41
45894;BME280;31603;51.148;16.932;2023-03-17T18:42:42;100217.47;;;7.82;46.89
45894;BME280;31603;51.148;16.932;2023-03-17T18:45:10;100216.53;;;7.75;47.28
45894;BME280;31603;51.148;16.932;2023-03-17T18:47:37;100211.81;;;7.68;48.11
45894;BME280;31603;51.148;16.932;2023-03-17T18:50:07;100214.78;;;7.67;48.06
45894;BME280;31603;51.148;16.932;2023-03-17T18:52:36;100220.72;;;7.70;47.54
45894;BME280;31603;51.148;16.932;2023-03-17T18:55:04;100204.28;;;7.70;47.96
45894;BME280;31603;51.148;16.932;2023-03-17T18:57:32;100216.16;;;7.78;47.75
45894;BME280;31603;51.148;16.932;2023-03-17T18:59:59;100216.09;;;7.56;47.99
45894;BME280;31603;51.148;16.932;2023-03-17T19:02:29;100222.03;;;7.60;48.09
45894;BME280;31603;51.148;16.932;2023-03-17T19:04:56;100226.59;;;7.53;48.17
45894;BME280;31603;51.148;16.932;2023-03-17T19:07:22;100223.63;;;7.54;48.70
45894;BME280;31603;51.148;16.932;2023-03-17T19:09:49;100223.25;;;7.57;47.85
45894;BME280;31603;51.148;16.932;2023-03-17T19:12:16;100211.00;;;7.53;48.52
45894;BME280;31603;51.148;16.932;2023-03-17T19:14:52;100212.31;;;7.57;48.44
45894;BME280;31603;51.148;16.932;2023-03-17T19:17:19;100214.78;;;7.52;49.24
45894;BME280;31603;51.148;16.932;2023-03-17T19:19:48;100221.69;;;7.48;48.62
45894;BME280;31603;51.148;16.932;2023-03-17T19:22:16;100217.53;;;7.52;49.33
45894;BME280;31603;51.148;16.932;2023-03-17T19:24:43;100218.75;;;7.35;49.64
45894;BME280;31603;51.148;16.932;2023-03-17T19:27:12;100204.22;;;7.34;50.11
45894;BME280;31603;51.148;16.932;2023-03-17T19:29:39;100208.28;;;7.38;50.17
45894;BME280;31603;51.148;16.932;2023-03-17T19:32:09;100219.41;;;7.22;50.14
45894;BME280;31603;51.148;16.932;2023-03-17T19:34:36;100203.66;;;7.24;50.36
45894;BME280;31603;51.148;16.932;2023-03-17T19:37:02;100213.09;;;7.21;50.88
45894;BME280;31603;51.148;16.932;2023-03-17T19:39:29;100202.91;;;7.15;50.94
45894;BME280;31603;51.148;16.932;2023-03-17T19:41:58;100191.41;;;7.05;51.23
45894;BME280;31603;51.148;16.932;2023-03-17T19:44:38;100205.84;;;7.14;51.28
45894;BME280;31603;51.148;16.932;2023-03-17T19:47:05;100215.53;;;7.02;52.17
45894;BME280;31603;51.148;16.932;2023-03-17T19:49:34;100211.50;;;6.97;52.56
45894;BME280;31603;51.148;16.932;2023-03-17T19:52:02;100211.97;;;7.01;53.12
45894;BME280;31603;51.148;16.932;2023-03-17T19:54:28;100204.78;;;7.00;53.26
45894;BME280;31603;51.148;16.932;2023-03-17T19:56:55;100207.31;;;6.87;53.48
45894;BME280;31603;51.148;16.932;2023-03-17T19:59:22;100208.78;;;6.74;54.58
45894;BME280;31603;51.148;16.932;2023-03-17T20:01:49;100208.78;;;6.74;54.32
45894;BME280;31603;51.148;16.932;2023-03-17T20:04:17;100210.56;;;6.67;55.00
45894;BME280;31603;51.148;16.932;2023-03-17T20:06:48;100211.53;;;6.74;54.49
45894;BME280;31603;51.148;16.932;2023-03-17T20:09:19;100213.03;;;6.62;54.79
45894;BME280;31603;51.148;16.932;2023-03-17T20:11:46;100209.72;;;6.67;55.23
45894;BME280;31603;51.148;16.932;2023-03-17T20:14:12;100194.72;;;6.48;55.34
45894;BME280;31603;51.148;16.932;2023-03-17T20:16:39;100198.69;;;6.60;55.19
45894;BME280;31603;51.148;16.932;2023-03-17T20:19:08;100191.38;;;6.38;55.50
45894;BME280;31603;51.148;16.932;2023-03-17T20:21:35;100197.69;;;6.38;56.09
45894;BME280;31603;51.148;16.932;2023-03-17T20:24:10;100204.31;;;6.44;54.98
45894;BME280;31603;51.148;16.932;2023-03-17T20:26:39;100201.56;;;6.44;54.65
45894;BME280;31603;51.148;16.932;2023-03-17T20:29:05;100186.78;;;6.53;53.68
45894;BME280;31603;51.148;16.932;2023-03-17T20:31:32;100196.41;;;6.49;54.15
45894;BME280;31603;51.148;16.932;2023-03-17T20:33:59;100203.50;;;6.58;53.51
45894;BME280;31603;51.148;16.932;2023-03-17T20:36:26;100204.44;;;6.50;53.66
45894;BME280;31603;51.148;16.932;2023-03-17T20:38:53;100195.44;;;6.42;53.67
45894;BME280;31603;51.148;16.932;2023-03-17T20:41:21;100211.16;;;6.40;53.67
45894;BME280;31603;51.148;16.932;2023-03-17T20:43:48;100214.16;;;6.30;54.62
45894;BME280;31603;51.148;16.932;2023-03-17T20:46:19;100212.38;;;6.37;53.79
45894;BME280;31603;51.148;16.932;2023-03-17T20:48:47;100212.31;;;6.45;53.32
45894;BME280;31603;51.148;16.932;2023-03-17T20:51:15;100210.50;;;6.38;53.22
45894;BME280;31603;51.148;16.932;2023-03-17T20:53:44;100213.91;;;6.40;51.83
45894;BME280;31603;51.148;16.932;2023-03-17T20:56:12;100206.72;;;6.39;51.98
45894;BME280;31603;51.148;16.932;2023-03-17T20:58:42;100207.97;;;6.36;51.30
45894;BME280;31603;51.148;16.932;2023-03-17T21:01:09;100206.72;;;6.39;51.19
45894;BME280;31603;51.148;16.932;2023-03-17T21:03:37;100198.00;;;6.43;50.59
45894;BME280;31603;51.148;16.932;2023-03-17T21:06:04;100206.00;;;6.45;50.46
45894;BME280;31603;51.148;16.932;2023-03-17T21:08:31;100200.97;;;6.34;50.57
45894;BME280;31603;51.148;16.932;2023-03-17T21:10:58;100181.94;;;6.25;50.32
45894;BME280;31603;51.148;16.932;2023-03-17T21:13:25;100201.34;;;6.31;50.21
45894;BME280;31603;51.148;16.932;2023-03-17T21:15:53;100203.69;;;6.34;50.74
45894;BME280;31603;51.148;16.932;2023-03-17T21:18:21;100207.47;;;6.33;50.60
45894;BME280;31603;51.148;16.932;2023-03-17T21:20:48;100197.28;;;6.26;50.04
45894;BME280;31603;51.148;16.932;2023-03-17T21:23:14;100195.22;;;6.29;49.82
45894;BME280;31603;51.148;16.932;2023-03-17T21:25:41;100193.22;;;6.22;50.18
45894;BME280;31603;51.148;16.932;2023-03-17T21:28:09;100192.44;;;6.14;50.36
45894;BME280;31603;51.148;16.932;2023-03-17T21:30:41;100182.03;;;6.09;50.52
45894;BME280;31603;51.148;16.932;2023-03-17T21:33:09;100188.91;;;6.05;51.03
45894;BME280;31603;51.148;16.932;2023-03-17T21:35:35;100189.09;;;6.03;51.73
45894;BME280;31603;51.148;16.932;2023-03-17T21:38:02;100191.94;;;6.10;52.24
45894;BME280;31603;51.148;16.932;2023-03-17T21:40:29;100190.69;;;5.90;52.45
45894;BME280;31603;51.148;16.932;2023-03-17T21:42:56;100176.13;;;5.74;53.39
45894;BME280;31603;51.148;16.932;2023-03-17T21:45:22;100176.75;;;5.85;53.09
45894;BME280;31603;51.148;16.932;2023-03-17T21:47:49;100179.84;;;5.73;52.96
45894;BME280;31603;51.148;16.932;2023-03-17T21:50:17;100165.22;;;5.66;52.89
45894;BME280;31603;51.148;16.932;2023-03-17T21:52:43;100160.75;;;5.73;52.96
45894;BME280;31603;51.148;16.932;2023-03-17T21:55:10;100156.53;;;5.71;52.54
45894;BME280;31603;51.148;16.932;2023-03-17T21:57:37;100155.50;;;5.72;52.29
45894;BME280;31603;51.148;16.932;2023-03-17T22:00:05;100159.00;;;5.80;50.98
45894;BME280;31603;51.148;16.932;2023-03-17T22:02:33;100162.41;;;5.83;51.15
45894;BME280;31603;51.148;16.932;2023-03-17T22:05:00;100154.28;;;5.74;50.85
45894;BME280;31603;51.148;16.932;2023-03-17T22:07:28;100164.47;;;5.80;50.85
45894;BME280;31603;51.148;16.932;2023-03-17T22:09:55;100157.22;;;5.65;51.09
45894;BME280;31603;51.148;16.932;2023-03-17T22:12:23;100158.03;;;5.73;50.59
45894;BME280;31603;51.148;16.932;2023-03-17T22:14:50;100155.69;;;5.70;51.02
45894;BME280;31603;51.148;16.932;2023-03-17T22:17:16;100154.31;;;5.66;50.66
45894;BME280;31603;51.148;16.932;2023-03-17T22:19:45;100149.19;;;5.71;50.45
45894;BME280;31603;51.148;16.932;2023-03-17T22:22:13;100157.44;;;5.63;49.82
45894;BME280;31603;51.148;16.932;2023-03-17T22:24:43;100146.13;;;5.66;49.84
45894;BME280;31603;51.148;16.932;2023-03-17T22:27:09;100150.25;;;5.62;49.83
45894;BME280;31603;51.148;16.932;2023-03-17T22:29:36;100153.13;;;5.69;49.41
45894;BME280;31603;51.148;16.932;2023-03-17T22:32:03;100149.19;;;5.71;49.03
45894;BME280;31603;51.148;16.932;2023-03-17T22:34:30;100151.84;;;5.79;49.24
45894;BME280;31603;51.148;16.932;2023-03-17T22:36:56;100140.28;;;5.77;48.70
45894;BME280;31603;51.148;16.932;2023-03-17T22:39:23;100149.94;;;5.88;48.13
45894;BME280;31603;51.148;16.932;2023-03-17T22:41:51;100145.69;;;5.86;47.82
45894;BME280;31603;51.148;16.932;2023-03-17T22:44:18;100131.34;;;5.84;47.56
45894;BME280;31603;51.148;16.932;2023-03-17T22:46:44;100136.06;;;5.98;47.27
45894;BME280;31603;51.148;16.932;2023-03-17T22:49:11;100132.28;;;5.99;47.00
45894;BME280;31603;51.148;16.932;2023-03-17T22:51:38;100138.78;;;5.98;47.24
45894;BME280;31603;51.148;16.932;2023-03-17T22:54:05;100143.53;;;6.04;46.87
45894;BME280;31603;51.148;16.932;2023-03-17T22:56:32;100134.66;;;6.02;46.95
45894;BME280;31603;51.148;16.932;2023-03-17T22:59:00;100117.53;;;5.85;46.87
45894;BME280;31603;51.148;16.932;2023-03-17T23:01:28;100133.69;;;5.95;46.92
45894;BME280;31603;51.148;16.932;2023-03-17T23:03:56;100133.66;;;6.03;46.34
45894;BME280;31603;51.148;16.932;2023-03-17T23:06:23;100140.00;;;5.95;46.71
45894;BME280;31603;51.148;16.932;2023-03-17T23:08:49;100118.88;;;5.89;46.33
45894;BME280;31603;51.148;16.932;2023-03-17T23:11:18;100122.41;;;5.98;46.15
45894;BME280;31603;51.148;16.932;2023-03-17T23:13:46;100121.75;;;5.96;45.92
45894;BME280;31603;51.148;16.932;2023-03-17T23:16:14;100128.28;;;6.10;46.18
45894;BME280;31603;51.148;16.932;2023-03-17T23:18:42;100130.53;;;6.06;45.96
45894;BME280;31603;51.148;16.932;2023-03-17T23:21:19;100132.19;;;5.92;46.61
45894;BME280;31603;51.148;16.932;2023-03-17T23:23:46;100140.19;;;5.94;46.57
45894;BME280;31603;51.148;16.932;2023-03-17T23:26:13;100129.31;;;5.86;46.84
45894;BME280;31603;51.148;16.932;2023-03-17T23:28:40;100134.41;;;5.89;46.98
45894;BME280;31603;51.148;16.932;2023-03-17T23:31:08;100123.22;;;5.75;46.80
45894;BME280;31603;51.148;16.932;2023-03-17T23:33:38;100128.00;;;5.73;46.91
45894;BME280;31603;51.148;16.932;2023-03-17T23:36:05;100127.00;;;5.74;47.27
45894;BME280;31603;51.148;16.932;2023-03-17T23:38:33;100135.22;;;5.66;47.18
45894;BME280;31603;51.148;16.932;2023-03-17T23:41:00;100123.94;;;5.69;47.91
45894;BME280;31603;51.148;16.932;2023-03-17T23:43:27;100129.81;;;5.58;48.45
45894;BME280;31603;51.148;16.932;2023-03-17T23:45:54;100124.63;;;5.40;49.12
45894;BME280;31603;51.148;16.932;2023-03-17T23:48:21;100125.47;;;5.41;49.39
45894;BME280;31603;51.148;16.932;2023-03-17T23:50:53;100123.91;;;5.23;49.68
45894;BME280;31603;51.148;16.932;2023-03-17T23:53:21;100130.72;;;5.19;50.12
45894;BME280;31603;51.148;16.932;2023-03-17T23:55:48;100122.56;;;5.11;50.54
45894;BME280;31603;51.148;16.932;2023-03-17T23:58:15;100125.66;;;5.08;50.66
